sensor_id;sensor_type;location;lat;lon;timestamp;temperature;humidity
54158;DHT22;40065;49.894;10.358;2022-11-13T00:03:21;3.20;99.90
54158;DHT22;40065;49.894;10.358;2022-11-13T00:08:42;3.30;99.90
54158;DHT22;40065;49.894;10.358;2022-11-13T00:14:03;3.40;99.90
54158;DHT22;40065;49.894;10.358;2022-11-13T00:19:23;3.40;99.90
54158;DHT22;40065;49.894;10.358;2022-11-13T00:24:43;3.40;99.90
54158;DHT22;40065;49.894;10.358;2022-11-13T00:30:04;3.30;99.90
54158;DHT22;40065;49.894;10.358;2022-11-13T00:35:25;3.40;99.90
54158;DHT22;40065;49.894;10.358;2022-11-13T00:40:46;3.30;99.90
54158;DHT22;40065;49.894;10.358;2022-11-13T00:46:06;3.20;99.90
54158;DHT22;40065;49.894;10.358;2022-11-13T00:51:27;3.20;99.90
54158;DHT22;40065;49.894;10.358;2022-11-13T00:56:47;3.10;99.90
54158;DHT22;40065;49.894;10.358;2022-11-13T01:02:07;2.80;99.90
54158;DHT22;40065;49.894;10.358;2022-11-13T01:07:29;2.80;99.90
54158;DHT22;40065;49.894;10.358;2022-11-13T01:12:49;2.70;99.90
54158;DHT22;40065;49.894;10.358;2022-11-13T01:18:10;2.60;99.90
54158;DHT22;40065;49.894;10.358;2022-11-13T01:23:31;2.50;99.90
54158;DHT22;40065;49.894;10.358;2022-11-13T01:28:52;2.70;99.90
54158;DHT22;40065;49.894;10.358;2022-11-13T01:34:13;2.70;99.90
54158;DHT22;40065;49.894;10.358;2022-11-13T01:39:33;2.80;99.90
54158;DHT22;40065;49.894;10.358;2022-11-13T01:44:58;3.00;99.90
54158;DHT22;40065;49.894;10.358;2022-11-13T01:50:20;3.10;99.90
54158;DHT22;40065;49.894;10.358;2022-11-13T01:55:40;3.10;99.90
54158;DHT22;40065;49.894;10.358;2022-11-13T02:01:01;2.90;99.90
54158;DHT22;40065;49.894;10.358;2022-11-13T02:06:23;3.00;99.90
54158;DHT22;40065;49.894;10.358;2022-11-13T02:11:44;3.00;99.90
54158;DHT22;40065;49.894;10.358;2022-11-13T02:17:08;3.00;99.90
54158;DHT22;40065;49.894;10.358;2022-11-13T02:22:40;2.70;99.90
54158;DHT22;40065;49.894;10.358;2022-11-13T02:28:03;2.50;99.90
54158;DHT22;40065;49.894;10.358;2022-11-13T02:33:31;2.60;99.90
54158;DHT22;40065;49.894;10.358;2022-11-13T02:38:53;2.50;99.90
54158;DHT22;40065;49.894;10.358;2022-11-13T02:44:14;2.70;99.90
54158;DHT22;40065;49.894;10.358;2022-11-13T02:49:34;2.50;99.90
54158;DHT22;40065;49.894;10.358;2022-11-13T02:54:55;2.40;99.90
54158;DHT22;40065;49.894;10.358;2022-11-13T03:00:15;2.60;99.90
54158;DHT22;40065;49.894;10.358;2022-11-13T03:05:35;2.50;99.90
54158;DHT22;40065;49.894;10.358;2022-11-13T03:10:56;2.40;99.90
54158;DHT22;40065;49.894;10.358;2022-11-13T03:16:17;2.40;99.90
54158;DHT22;40065;49.894;10.358;2022-11-13T03:21:37;2.20;99.90
54158;DHT22;40065;49.894;10.358;2022-11-13T03:26:57;2.20;99.90
54158;DHT22;40065;49.894;10.358;2022-11-13T03:32:18;2.30;99.90
54158;DHT22;40065;49.894;10.358;2022-11-13T03:37:38;2.20;99.90
54158;DHT22;40065;49.894;10.358;2022-11-13T03:42:59;2.10;99.90
54158;DHT22;40065;49.894;10.358;2022-11-13T03:48:19;2.10;99.90
54158;DHT22;40065;49.894;10.358;2022-11-13T03:53:40;2.10;99.90
54158;DHT22;40065;49.894;10.358;2022-11-13T03:59:00;2.20;99.90
54158;DHT22;40065;49.894;10.358;2022-11-13T04:04:21;2.30;99.90
54158;DHT22;40065;49.894;10.358;2022-11-13T04:09:41;2.30;99.90
54158;DHT22;40065;49.894;10.358;2022-11-13T04:15:01;2.50;99.90
54158;DHT22;40065;49.894;10.358;2022-11-13T04:20:22;2.40;99.90
54158;DHT22;40065;49.894;10.358;2022-11-13T04:25:43;2.50;99.90
54158;DHT22;40065;49.894;10.358;2022-11-13T04:31:04;2.60;99.90
54158;DHT22;40065;49.894;10.358;2022-11-13T04:36:24;2.70;99.90
54158;DHT22;40065;49.894;10.358;2022-11-13T04:41:44;2.70;99.90
54158;DHT22;40065;49.894;10.358;2022-11-13T04:47:23;2.70;99.90
54158;DHT22;40065;49.894;10.358;2022-11-13T04:52:44;2.60;99.90
54158;DHT22;40065;49.894;10.358;2022-11-13T04:58:04;2.60;99.90
54158;DHT22;40065;49.894;10.358;2022-11-13T05:03:25;2.60;99.90
54158;DHT22;40065;49.894;10.358;2022-11-13T05:08:45;2.50;99.90
54158;DHT22;40065;49.894;10.358;2022-11-13T05:14:06;2.50;99.90
54158;DHT22;40065;49.894;10.358;2022-11-13T05:19:26;2.40;99.90
54158;DHT22;40065;49.894;10.358;2022-11-13T05:24:47;2.30;99.90
54158;DHT22;40065;49.894;10.358;2022-11-13T05:30:08;2.20;99.90
54158;DHT22;40065;49.894;10.358;2022-11-13T05:35:29;2.20;99.90
54158;DHT22;40065;49.894;10.358;2022-11-13T05:40:49;2.30;99.90
54158;DHT22;40065;49.894;10.358;2022-11-13T05:46:14;2.20;99.90
54158;DHT22;40065;49.894;10.358;2022-11-13T05:51:34;2.20;99.90
54158;DHT22;40065;49.894;10.358;2022-11-13T05:56:54;2.30;99.90
54158;DHT22;40065;49.894;10.358;2022-11-13T06:02:15;2.20;99.90
54158;DHT22;40065;49.894;10.358;2022-11-13T06:07:35;2.20;99.90
54158;DHT22;40065;49.894;10.358;2022-11-13T06:12:55;2.20;99.90
54158;DHT22;40065;49.894;10.358;2022-11-13T06:18:20;2.10;99.90
54158;DHT22;40065;49.894;10.358;2022-11-13T06:23:46;2.10;99.90
54158;DHT22;40065;49.894;10.358;2022-11-13T06:29:09;2.00;99.90
54158;DHT22;40065;49.894;10.358;2022-11-13T06:34:30;1.90;99.90
54158;DHT22;40065;49.894;10.358;2022-11-13T06:39:50;1.80;99.90
54158;DHT22;40065;49.894;10.358;2022-11-13T06:45:10;1.90;99.90
54158;DHT22;40065;49.894;10.358;2022-11-13T06:50:30;1.90;99.90
54158;DHT22;40065;49.894;10.358;2022-11-13T06:55:51;1.80;99.90
54158;DHT22;40065;49.894;10.358;2022-11-13T07:01:16;2.00;99.90
54158;DHT22;40065;49.894;10.358;2022-11-13T07:06:37;2.20;99.90
54158;DHT22;40065;49.894;10.358;2022-11-13T07:12:00;2.60;99.90
54158;DHT22;40065;49.894;10.358;2022-11-13T07:17:20;2.80;99.90
54158;DHT22;40065;49.894;10.358;2022-11-13T07:22:40;3.00;99.90
54158;DHT22;40065;49.894;10.358;2022-11-13T07:28:01;3.30;99.90
54158;DHT22;40065;49.894;10.358;2022-11-13T07:33:22;3.30;99.90
54158;DHT22;40065;49.894;10.358;2022-11-13T07:38:42;3.50;99.90
54158;DHT22;40065;49.894;10.358;2022-11-13T07:44:02;3.80;99.90
54158;DHT22;40065;49.894;10.358;2022-11-13T07:49:28;4.50;99.90
54158;DHT22;40065;49.894;10.358;2022-11-13T07:54:48;4.90;99.90
54158;DHT22;40065;49.894;10.358;2022-11-13T08:00:09;5.60;99.90
54158;DHT22;40065;49.894;10.358;2022-11-13T08:05:29;6.60;99.90
54158;DHT22;40065;49.894;10.358;2022-11-13T08:10:49;6.80;99.90
54158;DHT22;40065;49.894;10.358;2022-11-13T08:16:10;7.80;99.90
54158;DHT22;40065;49.894;10.358;2022-11-13T08:21:30;8.20;99.90
54158;DHT22;40065;49.894;10.358;2022-11-13T08:26:50;7.70;99.90
54158;DHT22;40065;49.894;10.358;2022-11-13T08:32:13;7.60;99.90
54158;DHT22;40065;49.894;10.358;2022-11-13T08:37:34;7.90;99.90
54158;DHT22;40065;49.894;10.358;2022-11-13T08:43:02;7.90;99.90
54158;DHT22;40065;49.894;10.358;2022-11-13T08:48:23;8.00;99.90
54158;DHT22;40065;49.894;10.358;2022-11-13T08:53:44;8.70;99.90
54158;DHT22;40065;49.894;10.358;2022-11-13T08:59:04;8.90;99.90
54158;DHT22;40065;49.894;10.358;2022-11-13T09:04:25;8.60;99.90
54158;DHT22;40065;49.894;10.358;2022-11-13T09:09:46;8.90;99.90
54158;DHT22;40065;49.894;10.358;2022-11-13T09:15:06;8.60;99.90
54158;DHT22;40065;49.894;10.358;2022-11-13T09:20:28;11.70;99.30
54158;DHT22;40065;49.894;10.358;2022-11-13T09:25:48;13.40;96.30
54158;DHT22;40065;49.894;10.358;2022-11-13T09:31:09;15.20;93.60
54158;DHT22;40065;49.894;10.358;2022-11-13T09:36:30;15.30;92.20
54158;DHT22;40065;49.894;10.358;2022-11-13T09:41:57;13.80;93.70
54158;DHT22;40065;49.894;10.358;2022-11-13T09:47:38;12.50;96.00
54158;DHT22;40065;49.894;10.358;2022-11-13T09:53:03;11.50;97.00
54158;DHT22;40065;49.894;10.358;2022-11-13T09:58:35;12.70;96.50
54158;DHT22;40065;49.894;10.358;2022-11-13T10:04:03;15.00;91.90
54158;DHT22;40065;49.894;10.358;2022-11-13T10:15:27;17.10;87.90
54158;DHT22;40065;49.894;10.358;2022-11-13T10:21:08;17.10;87.90
54158;DHT22;40065;49.894;10.358;2022-11-13T10:26:29;16.60;88.10
54158;DHT22;40065;49.894;10.358;2022-11-13T10:31:51;17.50;88.60
54158;DHT22;40065;49.894;10.358;2022-11-13T10:43:20;20.90;79.70
54158;DHT22;40065;49.894;10.358;2022-11-13T10:48:41;20.30;77.60
54158;DHT22;40065;49.894;10.358;2022-11-13T10:54:28;20.30;78.50
54158;DHT22;40065;49.894;10.358;2022-11-13T10:59:49;20.00;78.80
54158;DHT22;40065;49.894;10.358;2022-11-13T11:05:19;18.30;83.30
54158;DHT22;40065;49.894;10.358;2022-11-13T11:10:39;18.50;84.40
54158;DHT22;40065;49.894;10.358;2022-11-13T11:16:22;19.40;83.40
54158;DHT22;40065;49.894;10.358;2022-11-13T11:21:43;20.30;81.20
54158;DHT22;40065;49.894;10.358;2022-11-13T11:27:21;20.00;79.90
54158;DHT22;40065;49.894;10.358;2022-11-13T11:32:59;20.10;80.50
54158;DHT22;40065;49.894;10.358;2022-11-13T11:38:34;20.40;78.40
54158;DHT22;40065;49.894;10.358;2022-11-13T11:49:38;19.00;82.50
54158;DHT22;40065;49.894;10.358;2022-11-13T12:00:31;18.30;82.80
54158;DHT22;40065;49.894;10.358;2022-11-13T12:06:05;19.10;83.00
54158;DHT22;40065;49.894;10.358;2022-11-13T12:11:32;18.80;82.40
54158;DHT22;40065;49.894;10.358;2022-11-13T12:23:16;20.30;80.60
54158;DHT22;40065;49.894;10.358;2022-11-13T12:28:50;20.20;80.80
54158;DHT22;40065;49.894;10.358;2022-11-13T12:40:02;19.30;82.80
54158;DHT22;40065;49.894;10.358;2022-11-13T12:51:04;17.40;88.30
54158;DHT22;40065;49.894;10.358;2022-11-13T13:01:54;17.30;90.10
54158;DHT22;40065;49.894;10.358;2022-11-13T13:18:23;17.90;83.60
54158;DHT22;40065;49.894;10.358;2022-11-13T13:23:46;18.80;82.60
54158;DHT22;40065;49.894;10.358;2022-11-13T13:29:21;18.40;81.70
54158;DHT22;40065;49.894;10.358;2022-11-13T13:35:10;18.80;82.50
54158;DHT22;40065;49.894;10.358;2022-11-13T13:46:24;19.10;88.70
54158;DHT22;40065;49.894;10.358;2022-11-13T13:51:48;19.30;90.00
54158;DHT22;40065;49.894;10.358;2022-11-13T13:57:13;19.10;90.70
54158;DHT22;40065;49.894;10.358;2022-11-13T14:02:44;19.20;90.60
54158;DHT22;40065;49.894;10.358;2022-11-13T14:08:19;19.00;90.40
54158;DHT22;40065;49.894;10.358;2022-11-13T14:13:39;18.90;90.50
54158;DHT22;40065;49.894;10.358;2022-11-13T14:19:03;18.70;92.10
54158;DHT22;40065;49.894;10.358;2022-11-13T14:24:30;18.60;92.10
54158;DHT22;40065;49.894;10.358;2022-11-13T14:29:59;18.90;91.60
54158;DHT22;40065;49.894;10.358;2022-11-13T14:35:22;18.30;92.20
54158;DHT22;40065;49.894;10.358;2022-11-13T14:40:45;17.40;92.90
54158;DHT22;40065;49.894;10.358;2022-11-13T14:51:55;15.70;94.60
54158;DHT22;40065;49.894;10.358;2022-11-13T14:57:16;14.80;98.90
54158;DHT22;40065;49.894;10.358;2022-11-13T15:02:36;14.00;99.90
54158;DHT22;40065;49.894;10.358;2022-11-13T15:07:57;13.30;99.90
54158;DHT22;40065;49.894;10.358;2022-11-13T15:13:17;13.10;99.90
54158;DHT22;40065;49.894;10.358;2022-11-13T15:18:38;12.60;99.90
54158;DHT22;40065;49.894;10.358;2022-11-13T15:23:58;12.20;99.90
54158;DHT22;40065;49.894;10.358;2022-11-13T15:29:19;11.70;99.90
54158;DHT22;40065;49.894;10.358;2022-11-13T15:34:40;11.40;99.90
54158;DHT22;40065;49.894;10.358;2022-11-13T15:40:00;11.10;99.90
54158;DHT22;40065;49.894;10.358;2022-11-13T15:45:21;10.80;99.90
54158;DHT22;40065;49.894;10.358;2022-11-13T15:50:41;10.50;99.90
54158;DHT22;40065;49.894;10.358;2022-11-13T15:56:01;10.30;99.90
54158;DHT22;40065;49.894;10.358;2022-11-13T16:01:24;9.90;99.90
54158;DHT22;40065;49.894;10.358;2022-11-13T16:06:44;9.70;99.90
54158;DHT22;40065;49.894;10.358;2022-11-13T16:12:05;9.60;99.90
54158;DHT22;40065;49.894;10.358;2022-11-13T16:17:25;9.40;99.90
54158;DHT22;40065;49.894;10.358;2022-11-13T16:22:46;9.20;99.90
54158;DHT22;40065;49.894;10.358;2022-11-13T16:28:16;9.10;99.90
54158;DHT22;40065;49.894;10.358;2022-11-13T16:33:37;9.10;99.90
54158;DHT22;40065;49.894;10.358;2022-11-13T16:38:57;9.00;99.90
54158;DHT22;40065;49.894;10.358;2022-11-13T16:44:17;9.50;99.90
54158;DHT22;40065;49.894;10.358;2022-11-13T16:49:38;9.40;99.90
54158;DHT22;40065;49.894;10.358;2022-11-13T16:54:58;9.20;99.90
54158;DHT22;40065;49.894;10.358;2022-11-13T17:00:25;9.40;99.90
54158;DHT22;40065;49.894;10.358;2022-11-13T17:05:50;9.50;99.90
54158;DHT22;40065;49.894;10.358;2022-11-13T17:11:12;9.50;99.90
54158;DHT22;40065;49.894;10.358;2022-11-13T17:16:32;9.20;99.90
54158;DHT22;40065;49.894;10.358;2022-11-13T17:21:52;9.10;99.90
54158;DHT22;40065;49.894;10.358;2022-11-13T17:27:13;8.90;99.90
54158;DHT22;40065;49.894;10.358;2022-11-13T17:32:33;8.60;99.90
54158;DHT22;40065;49.894;10.358;2022-11-13T17:37:53;8.40;99.90
54158;DHT22;40065;49.894;10.358;2022-11-13T17:43:14;8.10;99.90
54158;DHT22;40065;49.894;10.358;2022-11-13T17:48:36;8.00;99.90
54158;DHT22;40065;49.894;10.358;2022-11-13T17:53:56;7.80;99.90
54158;DHT22;40065;49.894;10.358;2022-11-13T17:59:16;7.80;99.90
54158;DHT22;40065;49.894;10.358;2022-11-13T18:04:36;7.60;99.90
54158;DHT22;40065;49.894;10.358;2022-11-13T18:09:57;7.70;99.90
54158;DHT22;40065;49.894;10.358;2022-11-13T18:15:17;7.70;99.90
54158;DHT22;40065;49.894;10.358;2022-11-13T18:20:39;7.60;99.90
54158;DHT22;40065;49.894;10.358;2022-11-13T18:26:15;7.60;99.90
54158;DHT22;40065;49.894;10.358;2022-11-13T18:31:36;8.00;99.90
54158;DHT22;40065;49.894;10.358;2022-11-13T18:36:56;8.40;99.90
54158;DHT22;40065;49.894;10.358;2022-11-13T18:42:18;8.60;99.90
54158;DHT22;40065;49.894;10.358;2022-11-13T18:47:39;8.90;99.90
54158;DHT22;40065;49.894;10.358;2022-11-13T18:52:59;9.10;99.90
54158;DHT22;40065;49.894;10.358;2022-11-13T18:58:19;9.10;99.90
54158;DHT22;40065;49.894;10.358;2022-11-13T19:03:39;9.20;99.90
54158;DHT22;40065;49.894;10.358;2022-11-13T19:09:20;9.20;99.90
54158;DHT22;40065;49.894;10.358;2022-11-13T19:14:40;9.00;99.90
54158;DHT22;40065;49.894;10.358;2022-11-13T19:20:00;8.90;99.90
54158;DHT22;40065;49.894;10.358;2022-11-13T19:25:21;8.80;99.90
54158;DHT22;40065;49.894;10.358;2022-11-13T19:30:45;8.70;99.90
54158;DHT22;40065;49.894;10.358;2022-11-13T19:36:09;8.70;99.90
54158;DHT22;40065;49.894;10.358;2022-11-13T19:41:29;8.60;99.90
54158;DHT22;40065;49.894;10.358;2022-11-13T19:46:50;8.50;99.90
54158;DHT22;40065;49.894;10.358;2022-11-13T19:52:10;8.40;99.90
54158;DHT22;40065;49.894;10.358;2022-11-13T19:57:30;8.20;99.90
54158;DHT22;40065;49.894;10.358;2022-11-13T20:02:54;8.30;99.90
54158;DHT22;40065;49.894;10.358;2022-11-13T20:08:16;8.20;99.90
54158;DHT22;40065;49.894;10.358;2022-11-13T20:13:38;8.20;99.90
54158;DHT22;40065;49.894;10.358;2022-11-13T20:19:00;8.20;99.90
54158;DHT22;40065;49.894;10.358;2022-11-13T20:24:21;8.10;99.90
54158;DHT22;40065;49.894;10.358;2022-11-13T20:29:41;8.10;99.90
54158;DHT22;40065;49.894;10.358;2022-11-13T20:35:02;7.90;99.90
54158;DHT22;40065;49.894;10.358;2022-11-13T20:40:22;7.90;99.90
54158;DHT22;40065;49.894;10.358;2022-11-13T20:45:42;7.80;99.90
54158;DHT22;40065;49.894;10.358;2022-11-13T20:56:33;7.60;99.90
54158;DHT22;40065;49.894;10.358;2022-11-13T21:01:53;7.50;99.90
54158;DHT22;40065;49.894;10.358;2022-11-13T21:07:15;7.60;99.90
54158;DHT22;40065;49.894;10.358;2022-11-13T21:12:35;7.40;99.90
54158;DHT22;40065;49.894;10.358;2022-11-13T21:17:57;7.40;99.90
54158;DHT22;40065;49.894;10.358;2022-11-13T21:23:17;7.40;99.90
54158;DHT22;40065;49.894;10.358;2022-11-13T21:28:38;7.50;99.90
54158;DHT22;40065;49.894;10.358;2022-11-13T21:33:59;7.40;99.90
54158;DHT22;40065;49.894;10.358;2022-11-13T21:39:20;7.40;99.90
54158;DHT22;40065;49.894;10.358;2022-11-13T21:44:40;7.40;99.90
54158;DHT22;40065;49.894;10.358;2022-11-13T21:50:02;7.40;99.90
54158;DHT22;40065;49.894;10.358;2022-11-13T21:55:22;7.40;99.90
54158;DHT22;40065;49.894;10.358;2022-11-13T22:00:43;7.60;99.90
54158;DHT22;40065;49.894;10.358;2022-11-13T22:11:35;7.40;99.90
54158;DHT22;40065;49.894;10.358;2022-11-13T22:16:56;7.20;99.90
54158;DHT22;40065;49.894;10.358;2022-11-13T22:22:16;7.10;99.90
54158;DHT22;40065;49.894;10.358;2022-11-13T22:27:36;6.80;99.90
54158;DHT22;40065;49.894;10.358;2022-11-13T22:32:56;6.40;99.90
54158;DHT22;40065;49.894;10.358;2022-11-13T22:38:16;6.10;99.90
54158;DHT22;40065;49.894;10.358;2022-11-13T22:43:39;5.80;99.90
54158;DHT22;40065;49.894;10.358;2022-11-13T22:49:01;5.60;99.90
54158;DHT22;40065;49.894;10.358;2022-11-13T22:54:21;5.40;99.90
54158;DHT22;40065;49.894;10.358;2022-11-13T22:59:41;5.30;99.90
54158;DHT22;40065;49.894;10.358;2022-11-13T23:05:01;5.30;99.90
54158;DHT22;40065;49.894;10.358;2022-11-13T23:10:21;5.40;99.90
54158;DHT22;40065;49.894;10.358;2022-11-13T23:15:44;5.40;99.90
54158;DHT22;40065;49.894;10.358;2022-11-13T23:21:06;5.30;99.90
54158;DHT22;40065;49.894;10.358;2022-11-13T23:26:26;5.20;99.90
54158;DHT22;40065;49.894;10.358;2022-11-13T23:31:47;5.10;99.90
54158;DHT22;40065;49.894;10.358;2022-11-13T23:37:07;4.90;99.90
54158;DHT22;40065;49.894;10.358;2022-11-13T23:42:28;4.90;99.90
54158;DHT22;40065;49.894;10.358;2022-11-13T23:48:08;4.90;99.90
54158;DHT22;40065;49.894;10.358;2022-11-13T23:53:28;4.80;99.90
54158;DHT22;40065;49.894;10.358;2022-11-13T23:58:51;4.80;99.90
